createdAt,value
2018-04-06T00:00:25.728Z,61.35
2018-04-06T00:01:25.743Z,61.07
2018-04-06T00:02:26.016Z,61.07
2018-04-06T00:03:26.029Z,62.49
2018-04-06T00:04:26.053Z,60.34
2018-04-06T00:05:26.067Z,59.36
2018-04-06T00:06:26.082Z,58.79
2018-04-06T00:07:26.104Z,58.69
2018-04-06T00:08:26.187Z,59.64
2018-04-06T00:09:26.138Z,60.12
2018-04-06T00:10:26.157Z,60.41
2018-04-06T00:11:26.165Z,63.73
2018-04-06T00:12:26.192Z,60.82
2018-04-06T00:13:26.199Z,59.39
2018-04-06T00:14:25.965Z,58.69
2018-04-06T00:15:26.236Z,58.59
2018-04-06T00:16:26.239Z,59.01
2018-04-06T00:17:26.005Z,60.53
2018-04-06T00:18:26.276Z,58.72
2018-04-06T00:19:26.303Z,58.69
2018-04-06T00:20:26.320Z,59.45
2018-04-06T00:21:26.348Z,58.79
2018-04-06T00:22:26.361Z,59.45
2018-04-06T00:23:26.429Z,61.16
2018-04-06T00:24:26.392Z,61.74
2018-04-06T00:25:26.153Z,60.97
2018-04-06T00:26:26.426Z,60.44
2018-04-06T00:27:26.440Z,60.21
2018-04-06T00:28:26.199Z,60.12
2018-04-06T00:29:26.470Z,61.74
2018-04-06T00:30:26.489Z,61.64
2018-04-06T00:31:26.501Z,61
2018-04-06T00:32:26.521Z,61.86
2018-04-06T00:33:26.538Z,63.01
2018-04-06T00:34:26.553Z,62.49
2018-04-06T00:35:26.316Z,60.44
2018-04-06T00:36:26.333Z,60.05
2018-04-06T00:37:26.604Z,59.93
2018-04-06T00:38:26.420Z,60.12
2018-04-06T00:39:26.394Z,61.45
2018-04-06T00:40:26.660Z,61.29
2018-04-06T00:41:26.424Z,61.19
2018-04-06T00:42:26.695Z,61.58
2018-04-06T00:43:26.458Z,60.91
2018-04-06T00:44:26.727Z,61.86
2018-04-06T00:45:26.746Z,59.1
2018-04-06T00:46:26.762Z,59.48
2018-04-06T00:47:26.783Z,62.02
2018-04-06T00:48:26.796Z,63.29
2018-04-06T00:49:26.812Z,64.24
2018-04-06T00:50:26.830Z,62.81
2018-04-06T00:51:26.599Z,61.29
2018-04-06T00:52:26.866Z,60.82
2018-04-06T00:53:26.678Z,61.19
2018-04-06T00:54:26.647Z,61.48
2018-04-06T00:55:26.939Z,61.48
2018-04-06T00:56:26.685Z,61.96
2018-04-06T00:57:26.953Z,61.38
2018-04-06T00:58:26.975Z,62.62
2018-04-06T00:59:26.987Z,61.96
2018-04-06T01:00:26.751Z,62.91
2018-04-06T01:01:27.024Z,63.57
2018-04-06T01:02:27.039Z,65.67
2018-04-06T01:03:26.802Z,63.01
2018-04-06T01:04:27.072Z,62.62
2018-04-06T01:05:27.082Z,63.1
2018-04-06T01:06:27.094Z,64.24
2018-04-06T01:07:26.861Z,65.77
2018-04-06T01:08:26.932Z,65.77
2018-04-06T01:09:27.150Z,65
2018-04-06T01:10:27.163Z,64.53
2018-04-06T01:11:26.939Z,65.38
2018-04-06T01:12:26.957Z,67
2018-04-06T01:13:27.226Z,65.58
2018-04-06T01:14:27.249Z,63.67
2018-04-06T01:15:27.264Z,64.43
2018-04-06T01:16:27.032Z,64.53
2018-04-06T01:17:27.295Z,64.81
2018-04-06T01:18:27.164Z,64.53
2018-04-06T01:19:27.076Z,63.67
2018-04-06T01:20:27.345Z,65.1
2018-04-06T01:21:27.113Z,66.14
2018-04-06T01:22:27.383Z,65.86
2018-04-06T01:23:27.453Z,65.58
2018-04-06T01:24:27.162Z,66.14
2018-04-06T01:25:27.179Z,67.1
2018-04-06T01:26:27.452Z,66.53
2018-04-06T01:27:27.213Z,66.14
2018-04-06T01:28:27.632Z,66.43
2018-04-06T01:29:27.498Z,65.67
2018-04-06T01:30:27.273Z,64.72
2018-04-06T01:31:27.539Z,65.19
2018-04-06T01:32:27.577Z,67
2018-04-06T01:33:27.599Z,68.15
2018-04-06T01:34:27.598Z,67.38
2018-04-06T01:35:27.352Z,66.33
2018-04-06T01:36:27.370Z,65.48
2018-04-06T01:37:27.641Z,65.1
2018-04-06T01:38:27.714Z,63.76
2018-04-06T01:39:27.687Z,63.76
2018-04-06T01:40:27.696Z,63.1
2018-04-06T01:41:27.706Z,63.96
2018-04-06T01:42:27.468Z,64.05
2018-04-06T01:43:27.788Z,65.19
2018-04-06T01:44:27.757Z,63.86
2018-04-06T01:45:27.520Z,64.34
2018-04-06T01:46:27.792Z,67.76
2018-04-06T01:47:27.557Z,67.67
2018-04-06T01:48:27.823Z,67.29
2018-04-06T01:49:27.885Z,67.29
2018-04-06T01:50:27.860Z,66.72
2018-04-06T01:51:27.638Z,66.72
2018-04-06T01:52:27.894Z,66.33
2018-04-06T01:53:27.655Z,65.77
2018-04-06T01:54:27.962Z,66.14
2018-04-06T01:55:27.698Z,65.29
2018-04-06T01:56:28.016Z,65.19
2018-04-06T01:57:27.980Z,65.86
2018-04-06T01:58:27.995Z,67
2018-04-06T01:59:28.018Z,65.77
2018-04-06T02:00:28.034Z,66.14
2018-04-06T02:01:27.796Z,68.24
2018-04-06T02:02:27.809Z,68.71
2018-04-06T02:03:28.080Z,65.48
2018-04-06T02:04:28.102Z,63.48
2018-04-06T02:05:27.864Z,64.34
2018-04-06T02:06:28.183Z,64.9
2018-04-06T02:07:27.900Z,67.67
2018-04-06T02:08:28.163Z,67.29
2018-04-06T02:09:27.926Z,65.38
2018-04-06T02:10:28.190Z,65.19
2018-04-06T02:11:28.220Z,64.9
2018-04-06T02:12:28.235Z,65.38
2018-04-06T02:13:28.252Z,66.62
2018-04-06T02:14:28.013Z,67.1
2018-04-06T02:15:28.287Z,64.62
2018-04-06T02:16:29.249Z,65.1
2018-04-06T02:17:28.065Z,64.81
2018-04-06T02:18:28.336Z,63.76
2018-04-06T02:19:28.099Z,64.43
2018-04-06T02:20:28.371Z,65.48
2018-04-06T02:21:28.442Z,67.67
2018-04-06T02:22:28.402Z,67.57
2018-04-06T02:23:28.425Z,65.67
2018-04-06T02:24:28.516Z,66.53
2018-04-06T02:25:28.454Z,66.72
2018-04-06T02:26:28.471Z,65.95
2018-04-06T02:27:28.487Z,65.38
2018-04-06T02:28:28.252Z,65.29
2018-04-06T02:29:28.523Z,64.72
2018-04-06T02:30:28.540Z,65.73
2018-04-06T02:31:28.558Z,65.1
2018-04-06T02:32:28.573Z,66.72
2018-04-06T02:33:28.594Z,67
2018-04-06T02:34:28.359Z,67.67
2018-04-06T02:35:28.369Z,65.86
2018-04-06T02:36:28.646Z,66.2
2018-04-06T02:37:28.709Z,67.54
2018-04-06T02:38:28.677Z,66.49
2018-04-06T02:39:28.691Z,67.07
2018-04-06T02:40:28.710Z,65.06
2018-04-06T02:41:28.736Z,65.45
2018-04-06T02:42:28.744Z,65.16
2018-04-06T02:43:28.764Z,67.73
2018-04-06T02:44:28.535Z,65.73
2018-04-06T02:45:28.789Z,65.73
2018-04-06T02:46:28.804Z,65.73
2018-04-06T02:47:28.827Z,65.64
2018-04-06T02:48:28.842Z,66.59
2018-04-06T02:49:28.857Z,67.54
2018-04-06T02:50:28.875Z,67.16
2018-04-06T02:51:28.896Z,65.92
2018-04-06T02:52:28.705Z,65.64
2018-04-06T02:53:28.933Z,66.59
2018-04-06T02:54:28.952Z,64.97
2018-04-06T02:55:28.965Z,68.3
2018-04-06T02:56:28.975Z,67.35
2018-04-06T02:57:28.992Z,65.35
2018-04-06T02:58:29.023Z,65.64
2018-04-06T02:59:29.030Z,65.73
2018-04-06T03:00:29.050Z,64.97
2018-04-06T03:01:29.060Z,66.11
2018-04-06T03:02:28.823Z,65.99
2018-04-06T03:03:28.837Z,66.3
2018-04-06T03:04:28.859Z,65.25
2018-04-06T03:05:29.124Z,65.89
2018-04-06T03:06:29.141Z,66.65
2018-04-06T03:07:29.161Z,67.6
2018-04-06T03:08:29.222Z,67.79
2018-04-06T03:09:29.198Z,67.6
2018-04-06T03:10:28.952Z,67.73
2018-04-06T03:11:29.222Z,67.63
2018-04-06T03:12:29.235Z,68.21
2018-04-06T03:13:29.003Z,69.5
2018-04-06T03:14:29.017Z,69.5
2018-04-06T03:15:29.287Z,69.35
2018-04-06T03:16:29.303Z,67.82
2018-04-06T03:17:29.064Z,65.8
2018-04-06T03:18:29.336Z,66.55
2018-04-06T03:19:29.355Z,66.94
2018-04-06T03:20:29.380Z,67.03
2018-04-06T03:21:29.391Z,67.5
2018-04-06T03:22:29.149Z,67.5
2018-04-06T03:23:29.474Z,68.36
2018-04-06T03:24:29.186Z,68.07
2018-04-06T03:25:29.461Z,67.22
2018-04-06T03:26:29.218Z,67.13
2018-04-06T03:27:29.488Z,67.69
2018-04-06T03:28:29.251Z,67.6
2018-04-06T03:29:29.527Z,67.5
2018-04-06T03:30:29.543Z,67.6
2018-04-06T03:31:29.556Z,66.94
2018-04-06T03:32:29.327Z,67.6
2018-04-06T03:33:29.333Z,69.6
2018-04-06T03:34:29.598Z,71.5
2018-04-06T03:35:29.627Z,70.17
2018-04-06T03:36:29.637Z,69.79
2018-04-06T03:37:29.649Z,70.36
2018-04-06T03:38:29.775Z,71.88
2018-04-06T03:39:29.681Z,72.64
2018-04-06T03:40:29.705Z,72.64
2018-04-06T03:41:29.713Z,72.92
2018-04-06T03:42:29.482Z,73.4
2018-04-06T03:43:29.749Z,72.16
2018-04-06T03:44:29.765Z,70.36
2018-04-06T03:45:29.526Z,71.12
2018-04-06T03:46:29.800Z,70.64
2018-04-06T03:47:29.814Z,71.59
2018-04-06T03:48:29.832Z,71.22
2018-04-06T03:49:29.851Z,71.78
2018-04-06T03:50:29.863Z,72.55
2018-04-06T03:51:29.883Z,72.64
2018-04-06T03:52:29.894Z,71.31
2018-04-06T03:53:29.969Z,70.36
2018-04-06T03:54:29.927Z,71.78
2018-04-06T03:55:29.942Z,72.64
2018-04-06T03:56:29.742Z,70.45
2018-04-06T03:57:29.974Z,71.78
2018-04-06T03:58:29.738Z,70.17
2018-04-06T03:59:30.007Z,70.83
2018-04-06T04:00:30.028Z,72.16
2018-04-06T04:01:30.041Z,70.74
2018-04-06T04:02:30.088Z,70.26
2018-04-06T04:03:30.126Z,70.17
2018-04-06T04:04:29.840Z,71.69
2018-04-06T04:05:30.109Z,72.26
2018-04-06T04:06:29.871Z,71.5
2018-04-06T04:07:30.141Z,70.36
2018-04-06T04:08:30.209Z,70.93
2018-04-06T04:09:30.177Z,70.74
2018-04-06T04:10:29.948Z,72.55
2018-04-06T04:11:29.968Z,71.69
2018-04-06T04:12:30.229Z,70.17
2018-04-06T04:13:30.239Z,72.55
2018-04-06T04:14:30.373Z,71.69
2018-04-06T04:15:30.277Z,69.69
2018-04-06T04:16:30.289Z,70.45
2018-04-06T04:17:30.303Z,70.36
2018-04-06T04:18:30.380Z,70.74
2018-04-06T04:19:30.101Z,72.83
2018-04-06T04:20:30.359Z,71.97
2018-04-06T04:21:30.120Z,71.5
2018-04-06T04:22:30.135Z,69.69
2018-04-06T04:23:30.509Z,70.83
2018-04-06T04:24:30.422Z,70.74
2018-04-06T04:25:30.439Z,70.17
2018-04-06T04:26:30.454Z,70.54
2018-04-06T04:27:30.220Z,69.66
2018-04-06T04:28:30.487Z,70.23
2018-04-06T04:29:30.525Z,69.75
2018-04-06T04:30:30.518Z,69.94
2018-04-06T04:31:30.535Z,71.56
2018-04-06T04:32:30.305Z,72.03
2018-04-06T04:33:30.570Z,71.75
2018-04-06T04:34:30.904Z,70.64
2018-04-06T04:35:30.600Z,71.97
2018-04-06T04:36:30.363Z,70.93
2018-04-06T04:37:30.635Z,69.88
2018-04-06T04:38:30.699Z,71.37
2018-04-06T04:39:30.413Z,73.08
2018-04-06T04:40:30.681Z,71.88
2018-04-06T04:41:30.455Z,70.26
2018-04-06T04:42:30.719Z,70.51
2018-04-06T04:43:30.737Z,71.69
2018-04-06T04:44:30.491Z,71.97
2018-04-06T04:45:30.762Z,71.88
2018-04-06T04:46:30.781Z,70.36
2018-04-06T04:47:30.796Z,71.5
2018-04-06T04:48:30.812Z,70.36
2018-04-06T04:49:30.828Z,70.61
2018-04-06T04:50:30.591Z,72.7
2018-04-06T04:51:30.873Z,71.5
2018-04-06T04:52:30.876Z,70.26
2018-04-06T04:53:30.939Z,70.7
2018-04-06T04:54:30.911Z,70.79
2018-04-06T04:55:30.671Z,70.7
2018-04-06T04:56:30.943Z,70.79
2018-04-06T04:57:30.955Z,70.89
2018-04-06T04:58:30.976Z,72.41
2018-04-06T04:59:30.735Z,71.46
2018-04-06T05:00:31.005Z,71.94
2018-04-06T05:01:31.021Z,73.36
2018-04-06T05:02:31.039Z,73.78
2018-04-06T05:03:30.851Z,72.74
2018-04-06T05:04:31.069Z,72.74
2018-04-06T05:05:31.088Z,72.83
2018-04-06T05:06:30.850Z,73.21
2018-04-06T05:07:31.119Z,73.11
2018-04-06T05:08:31.181Z,72.45
2018-04-06T05:09:31.149Z,72.16
2018-04-06T05:10:31.168Z,71.69
2018-04-06T05:11:31.185Z,71.84
2018-04-06T05:12:31.199Z,72.6
2018-04-06T05:13:30.960Z,71.84
2018-04-06T05:14:31.229Z,71.37
2018-04-06T05:15:31.248Z,72.22
2018-04-06T05:16:31.263Z,72.7
2018-04-06T05:17:31.283Z,72.32
2018-04-06T05:18:31.302Z,72.03
2018-04-06T05:19:31.312Z,72.32
2018-04-06T05:20:31.330Z,72.03
2018-04-06T05:21:31.345Z,72.6
2018-04-06T05:22:31.107Z,72.41
2018-04-06T05:23:31.172Z,72.6
2018-04-06T05:24:31.628Z,72.51
2018-04-06T05:25:31.156Z,72.99
2018-04-06T05:26:31.426Z,72.32
2018-04-06T05:27:31.186Z,71.94
2018-04-06T05:28:31.471Z,72.6
2018-04-06T05:29:31.476Z,72.6
2018-04-06T05:30:31.497Z,72.7
2018-04-06T05:31:31.510Z,72.7
2018-04-06T05:32:31.523Z,72.79
2018-04-06T05:33:31.541Z,72.89
2018-04-06T05:34:31.560Z,73.46
2018-04-06T05:35:31.319Z,73.65
2018-04-06T05:36:31.334Z,74.03
2018-04-06T05:37:31.688Z,73.36
2018-04-06T05:38:31.673Z,73.36
2018-04-06T05:39:31.639Z,73.74
2018-04-06T05:40:31.661Z,72.7
2018-04-06T05:41:31.676Z,72.51
2018-04-06T05:42:31.435Z,72.99
2018-04-06T05:43:31.710Z,72.74
2018-04-06T05:44:31.720Z,72.74
2018-04-06T05:45:31.485Z,72.03
2018-04-06T05:46:31.757Z,72.13
2018-04-06T05:47:31.778Z,72.7
2018-04-06T05:48:31.552Z,72.89
2018-04-06T05:49:31.548Z,72.89
2018-04-06T05:50:31.819Z,73.46
2018-04-06T05:51:31.580Z,73.93
2018-04-06T05:52:31.852Z,73.3
2018-04-06T05:53:31.918Z,72.92
2018-04-06T05:54:31.632Z,72.35
2018-04-06T05:55:31.908Z,72.92
2018-04-06T05:56:31.663Z,72.92
2018-04-06T05:57:31.938Z,72.64
2018-04-06T05:58:31.954Z,73.02
2018-04-06T05:59:31.713Z,72.64
2018-04-06T06:00:31.982Z,72.83
2018-04-06T06:01:31.748Z,72.07
2018-04-06T06:02:32.020Z,73.4
2018-04-06T06:03:32.037Z,71.88
2018-04-06T06:04:32.054Z,72.16
2018-04-06T06:05:31.814Z,72.64
2018-04-06T06:06:32.085Z,72.45
2018-04-06T06:07:32.107Z,71.97
2018-04-06T06:08:31.865Z,71.41
2018-04-06T06:09:31.933Z,72.16
2018-04-06T06:10:31.903Z,71.59
2018-04-06T06:11:31.915Z,71.69
2018-04-06T06:12:31.941Z,71.78
2018-04-06T06:13:31.947Z,71.5
2018-04-06T06:14:32.217Z,71.59
2018-04-06T06:15:32.237Z,71.78
2018-04-06T06:16:31.996Z,71.88
2018-04-06T06:17:32.266Z,72.07
2018-04-06T06:18:32.284Z,71.31
2018-04-06T06:19:32.296Z,71.5
2018-04-06T06:20:32.326Z,71.69
2018-04-06T06:21:32.078Z,70.93
2018-04-06T06:22:32.349Z,70.74
2018-04-06T06:23:32.111Z,70.74
2018-04-06T06:24:32.177Z,70.74
2018-04-06T06:25:32.396Z,70.74
2018-04-06T06:26:32.412Z,70.93
2018-04-06T06:27:32.432Z,70.36
2018-04-06T06:28:32.438Z,70.07
2018-04-06T06:29:32.253Z,70.64
2018-04-06T06:30:32.471Z,70.74
2018-04-06T06:31:32.488Z,70.74
2018-04-06T06:32:32.255Z,70.93
2018-04-06T06:33:32.524Z,70.74
2018-04-06T06:34:32.555Z,70.17
2018-04-06T06:35:32.552Z,70.64
2018-04-06T06:36:32.322Z,70.39
2018-04-06T06:37:32.346Z,69.54
2018-04-06T06:38:32.362Z,69.21
2018-04-06T06:39:32.632Z,70.07
2018-04-06T06:40:32.651Z,70.07
2018-04-06T06:41:32.667Z,69.6
2018-04-06T06:42:32.683Z,69.79
2018-04-06T06:43:32.710Z,69.98
2018-04-06T06:44:32.464Z,69.6
2018-04-06T06:45:32.783Z,69.79
2018-04-06T06:46:32.750Z,69.69
2018-04-06T06:47:32.767Z,69.02
2018-04-06T06:48:32.789Z,69.25
2018-04-06T06:49:32.804Z,68.96
2018-04-06T06:50:32.815Z,68.3
2018-04-06T06:51:32.830Z,68.59
2018-04-06T06:52:32.849Z,68.77
2018-04-06T06:53:32.867Z,69.41
2018-04-06T06:54:32.631Z,69.21
2018-04-06T06:55:32.904Z,68.87
2018-04-06T06:56:32.664Z,68.49
2018-04-06T06:57:32.937Z,68.77
2018-04-06T06:58:32.952Z,68.77
2018-04-06T06:59:32.715Z,68.77
2018-04-06T07:00:32.989Z,68.11
2018-04-06T07:01:32.753Z,67.54
2018-04-06T07:02:32.767Z,67.63
2018-04-06T07:03:32.786Z,67.25
2018-04-06T07:04:33.060Z,66.87
2018-04-06T07:05:33.080Z,66.49
2018-04-06T07:06:33.094Z,66.87
2018-04-06T07:07:33.108Z,67.16
2018-04-06T07:08:33.118Z,66.97
2018-04-06T07:09:33.134Z,67.63
2018-04-06T07:10:32.901Z,67.07
2018-04-06T07:11:33.192Z,66.2
2018-04-06T07:12:33.184Z,66.11
2018-04-06T07:13:32.951Z,66.59
2018-04-06T07:14:32.970Z,66.2
2018-04-06T07:15:32.987Z,65.45
2018-04-06T07:16:33.267Z,65.73
2018-04-06T07:17:33.280Z,65.54
2018-04-06T07:18:33.299Z,65.83
2018-04-06T07:19:33.063Z,66.11
2018-04-06T07:20:33.081Z,65.83
2018-04-06T07:21:33.348Z,65.73
2018-04-06T07:22:33.115Z,65.35
2018-04-06T07:23:33.139Z,65.77
2018-04-06T07:24:33.406Z,65.77
2018-04-06T07:25:33.166Z,65.29
2018-04-06T07:26:33.445Z,65.19
2018-04-06T07:27:33.456Z,65
2018-04-06T07:28:33.474Z,64.15
2018-04-06T07:29:33.238Z,63.76
2018-04-06T07:30:33.508Z,62.81
2018-04-06T07:31:33.524Z,63.76
2018-04-06T07:32:33.634Z,62.34
2018-04-06T07:33:33.560Z,61.86
2018-04-06T07:34:33.577Z,61.42
2018-04-06T07:35:33.596Z,60.08
2018-04-06T07:36:33.617Z,59.42
2018-04-06T07:37:33.376Z,59.29
2018-04-06T07:38:33.660Z,59.67
2018-04-06T07:39:33.664Z,59.86
2018-04-06T07:40:33.687Z,60.24
2018-04-06T07:41:33.702Z,60.24
2018-04-06T07:42:33.723Z,60.27
2018-04-06T07:43:33.741Z,60.37
2018-04-06T07:44:33.756Z,59.51
2018-04-06T07:45:33.519Z,59.48
2018-04-06T07:46:33.541Z,58.65
2018-04-06T07:47:33.812Z,58.28
2018-04-06T07:48:33.826Z,58.84
2018-04-06T07:49:33.841Z,58.84
2018-04-06T07:50:33.863Z,58.75
2018-04-06T07:51:33.879Z,58.65
2018-04-06T07:52:33.894Z,58.84
2018-04-06T07:53:33.914Z,58.3
2018-04-06T07:54:33.937Z,58.78
2018-04-06T07:55:33.700Z,58.3
2018-04-06T07:56:33.974Z,58.78
2018-04-06T07:57:33.987Z,58.4
2018-04-06T07:58:34.006Z,58.4
2018-04-06T07:59:34.022Z,57.54
2018-04-06T08:00:34.038Z,56.97
2018-04-06T08:01:33.805Z,56.3
2018-04-06T08:02:33.824Z,56.78
2018-04-06T08:03:34.110Z,57.16
2018-04-06T08:04:34.119Z,56.49
2018-04-06T08:05:33.878Z,56.3
2018-04-06T08:06:34.151Z,56.21
2018-04-06T08:07:34.167Z,56.4
2018-04-06T08:08:34.188Z,56.87
2018-04-06T08:09:33.954Z,56.71
2018-04-06T08:10:34.224Z,55.47
2018-04-06T08:11:33.989Z,55.54
2018-04-06T08:12:34.261Z,56.4
2018-04-06T08:13:34.277Z,55.95
2018-04-06T08:14:34.304Z,55.95
2018-04-06T08:15:34.319Z,55.95
2018-04-06T08:16:34.093Z,56.04
2018-04-06T08:17:34.356Z,56.78
2018-04-06T08:18:34.394Z,57.26
2018-04-06T08:19:34.390Z,56.04
2018-04-06T08:20:34.157Z,55.38
2018-04-06T08:21:34.173Z,54.8
2018-04-06T08:22:34.449Z,55.38
2018-04-06T08:23:34.214Z,55
2018-04-06T08:24:34.486Z,55
2018-04-06T08:25:34.250Z,54.33
2018-04-06T08:26:34.521Z,55.38
2018-04-06T08:27:34.538Z,55
2018-04-06T08:28:34.306Z,55.38
2018-04-06T08:29:34.577Z,55.47
2018-04-06T08:30:34.597Z,55.57
2018-04-06T08:31:34.618Z,55
2018-04-06T08:32:34.653Z,54.74
2018-04-06T08:33:34.400Z,54.36
2018-04-06T08:34:34.418Z,53.59
2018-04-06T08:35:34.691Z,53.78
2018-04-06T08:36:34.713Z,53.69
2018-04-06T08:37:34.728Z,53.59
2018-04-06T08:38:34.495Z,52.73
2018-04-06T08:39:34.765Z,52.67
2018-04-06T08:40:34.790Z,52
2018-04-06T08:41:34.808Z,52.57
2018-04-06T08:42:34.821Z,52.57
2018-04-06T08:43:34.585Z,52
2018-04-06T08:44:34.862Z,52.76
2018-04-06T08:45:34.881Z,52.19
2018-04-06T08:46:34.898Z,51.81
2018-04-06T08:47:34.665Z,52
2018-04-06T08:48:34.964Z,51.14
2018-04-06T08:49:34.963Z,50.76
2018-04-06T08:50:34.985Z,50.57
2018-04-06T08:51:35.004Z,51.23
2018-04-06T08:52:35.026Z,51.04
2018-04-06T08:53:35.040Z,51.45
2018-04-06T08:54:35.059Z,51.33
2018-04-06T08:55:35.083Z,51.17
2018-04-06T08:56:35.101Z,50.88
2018-04-06T08:57:35.118Z,51.07
2018-04-06T08:58:35.137Z,50.31
2018-04-06T08:59:35.158Z,50.43
2018-04-06T09:00:35.182Z,49.95
2018-04-06T09:01:35.204Z,49.57
2018-04-06T09:02:35.215Z,49.38
2018-04-06T09:03:35.245Z,48.8
2018-04-06T09:04:35.258Z,49.57
2018-04-06T09:05:35.024Z,48.35
2018-04-06T09:06:35.047Z,48.44
2018-04-06T09:07:35.063Z,48.52
2018-04-06T09:08:35.088Z,48.42
2018-04-06T09:09:35.105Z,48.42
2018-04-06T09:10:35.383Z,48.33
2018-04-06T09:11:35.399Z,47.66
2018-04-06T09:12:35.438Z,47.56
2018-04-06T09:13:35.465Z,47.37
2018-04-06T09:14:35.211Z,47.08
2018-04-06T09:15:35.486Z,47.37
2018-04-06T09:16:35.503Z,47.56
2018-04-06T09:17:35.527Z,46.06
2018-04-06T09:18:35.559Z,46.34
2018-04-06T09:19:35.567Z,46.06
2018-04-06T09:20:35.586Z,45.77
2018-04-06T09:21:35.612Z,45.7
2018-04-06T09:22:35.631Z,45.6
2018-04-06T09:23:35.646Z,42.66
2018-04-06T09:24:35.421Z,41.22
2018-04-06T09:25:35.438Z,41.7
2018-04-06T09:26:35.716Z,40.95
2018-04-06T09:27:35.738Z,40.67
2018-04-06T09:28:35.762Z,40.31
2018-04-06T09:29:35.531Z,39.92
2018-04-06T09:30:35.554Z,38.87
2018-04-06T09:31:35.853Z,38.1
2018-04-06T09:32:35.602Z,38.41
2018-04-06T09:33:35.630Z,37.93
2018-04-06T09:34:35.656Z,37.18
2018-04-06T09:35:35.938Z,36.42
2018-04-06T09:36:35.958Z,36.51
2018-04-06T09:37:35.978Z,36.51
2018-04-06T09:38:35.744Z,36.51
2018-04-06T09:39:35.778Z,35.86
2018-04-06T09:40:36.065Z,35.38
2018-04-06T09:41:35.865Z,35
2018-04-06T09:42:36.111Z,34.53
2018-04-06T09:43:36.136Z,34.06
2018-04-06T09:44:36.162Z,34.15
2018-04-06T09:45:36.188Z,33.77
2018-04-06T09:46:36.214Z,33.78
2018-04-06T09:47:36.243Z,33.5
2018-04-06T09:48:36.269Z,33.78
2018-04-06T09:49:36.366Z,33.11
2018-04-06T09:50:36.322Z,32.92
2018-04-06T09:51:36.346Z,32.75
2018-04-06T09:52:36.119Z,32.09
2018-04-06T09:53:36.404Z,32.09
2018-04-06T09:54:36.445Z,31.34
2018-04-06T09:55:36.204Z,30.76
2018-04-06T09:56:36.485Z,30.66
2018-04-06T09:57:36.256Z,30.58
2018-04-06T09:58:36.286Z,29.81
2018-04-06T09:59:36.312Z,28.85
2018-04-06T10:00:36.596Z,28.75
2018-04-06T10:01:36.674Z,28.47
2018-04-06T10:02:36.651Z,28.85
2018-04-06T10:03:36.681Z,29.32
2018-04-06T10:04:36.706Z,29.22
2018-04-06T10:05:36.733Z,29.51
2018-04-06T10:06:36.812Z,29.91
2018-04-06T10:07:36.791Z,29.54
2018-04-06T10:08:36.820Z,28.48
2018-04-06T10:09:36.848Z,28.48
2018-04-06T10:10:36.877Z,28.48
2018-04-06T10:11:36.912Z,27.81
2018-04-06T10:12:36.934Z,27.81
2018-04-06T10:13:36.965Z,28.09
2018-04-06T10:14:36.999Z,28.3
2018-04-06T10:15:37.019Z,27.82
2018-04-06T10:16:36.843Z,27.26
2018-04-06T10:17:37.078Z,27.06
2018-04-06T10:18:36.850Z,27.55
2018-04-06T10:19:37.135Z,27.26
2018-04-06T10:20:36.911Z,27.55
2018-04-06T10:21:36.940Z,27.56
2018-04-06T10:22:37.220Z,26.48
2018-04-06T10:23:36.999Z,26.1
2018-04-06T10:24:37.275Z,27.06
2018-04-06T10:25:37.053Z,26.89
2018-04-06T10:26:37.336Z,27.35
2018-04-06T10:27:37.113Z,26.98
2018-04-06T10:28:37.395Z,26.31
2018-04-06T10:29:37.428Z,26.31
2018-04-06T10:30:37.454Z,27.66
2018-04-06T10:31:37.228Z,26.53
2018-04-06T10:32:37.307Z,25.95
2018-04-06T10:33:37.543Z,25.28
2018-04-06T10:34:37.576Z,24.99
2018-04-06T10:35:37.356Z,24.71
2018-04-06T10:36:37.371Z,24.61
2018-04-06T10:37:37.704Z,24.71
2018-04-06T10:38:37.689Z,24.22
2018-04-06T10:39:37.719Z,24.8
2018-04-06T10:40:37.744Z,24.71
2018-04-06T10:41:37.784Z,24.88
2018-04-06T10:42:37.551Z,24.99
2018-04-06T10:43:37.836Z,24.32
2018-04-06T10:44:37.860Z,24.62
2018-04-06T10:45:37.894Z,24.71
2018-04-06T10:46:37.928Z,24.23
2018-04-06T10:47:37.999Z,24.52
2018-04-06T10:48:37.979Z,24.91
2018-04-06T10:49:37.755Z,23.76
2018-04-06T10:50:38.039Z,23.49
2018-04-06T10:51:38.119Z,23.77
2018-04-06T10:52:37.844Z,24.05
2018-04-06T10:53:38.126Z,23.86
2018-04-06T10:54:37.905Z,23.47
2018-04-06T10:55:37.932Z,24.35
2018-04-06T10:56:38.213Z,23.39
2018-04-06T10:57:38.246Z,23.01
2018-04-06T10:58:38.355Z,22.91
2018-04-06T10:59:38.053Z,23
2018-04-06T11:00:38.338Z,23.49
2018-04-06T11:01:38.365Z,22.53
2018-04-06T11:02:38.453Z,23.21
2018-04-06T11:03:38.429Z,23.29
2018-04-06T11:04:38.459Z,22.53
2018-04-06T11:05:38.238Z,22.82
2018-04-06T11:06:38.522Z,22.74
2018-04-06T11:07:38.553Z,22.43
2018-04-06T11:08:38.585Z,21.96
2018-04-06T11:09:38.621Z,21.39
2018-04-06T11:10:38.393Z,21.68
2018-04-06T11:11:38.427Z,21.2
2018-04-06T11:12:38.708Z,21.48
2018-04-06T11:13:38.748Z,22.43
2018-04-06T11:14:38.769Z,21.38
2018-04-06T11:15:38.802Z,21.77
2018-04-06T11:16:38.599Z,21.09
2018-04-06T11:17:38.666Z,21.39
2018-04-06T11:18:38.902Z,21.88
2018-04-06T11:19:38.953Z,20.72
2018-04-06T11:20:38.959Z,21.58
2018-04-06T11:21:38.744Z,20.62
2018-04-06T11:22:38.766Z,21.2
2018-04-06T11:23:39.054Z,20.9
2018-04-06T11:24:39.083Z,21.86
2018-04-06T11:25:39.115Z,21.48
2018-04-06T11:26:39.146Z,20.52
2018-04-06T11:27:39.182Z,20.62
2018-04-06T11:28:39.212Z,21.01
2018-04-06T11:29:39.262Z,19.95
2018-04-06T11:30:39.269Z,20.04
2018-04-06T11:31:39.300Z,20.14
2018-04-06T11:32:39.390Z,19.38
2018-04-06T11:33:39.368Z,19.95
2018-04-06T11:34:39.399Z,20.24
2018-04-06T11:35:39.429Z,18.7
2018-04-06T11:36:39.458Z,18.59
2018-04-06T11:37:39.499Z,19.18
2018-04-06T11:38:39.270Z,19.18
2018-04-06T11:39:39.564Z,18.32
2018-04-06T11:40:39.583Z,17.95
2018-04-06T11:41:39.365Z,18.91
2018-04-06T11:42:39.407Z,18.52
2018-04-06T11:43:39.688Z,17.56
2018-04-06T11:44:39.462Z,17.46
2018-04-06T11:45:39.753Z,18.33
2018-04-06T11:46:39.526Z,18.54
2018-04-06T11:47:39.565Z,17.48
2018-04-06T11:48:39.895Z,17.48
2018-04-06T11:49:39.878Z,16.31
2018-04-06T11:50:39.668Z,17
2018-04-06T11:51:39.962Z,16.53
2018-04-06T11:52:39.977Z,17.3
2018-04-06T11:53:40.008Z,17.3
2018-04-06T11:54:39.784Z,17.4
2018-04-06T11:55:39.819Z,16.43
2018-04-06T11:56:39.853Z,16.43
2018-04-06T11:57:39.884Z,16.43
2018-04-06T11:58:40.177Z,17.49
2018-04-06T11:59:40.213Z,16.14
2018-04-06T12:00:39.985Z,16.04
2018-04-06T12:01:40.018Z,16.24
2018-04-06T12:02:40.336Z,17.49
2018-04-06T12:03:40.135Z,16.71
2018-04-06T12:04:40.109Z,18.44
2018-04-06T12:05:40.391Z,17.66
2018-04-06T12:06:40.434Z,17.66
2018-04-06T12:07:40.215Z,17.09
2018-04-06T12:08:40.501Z,16.61
2018-04-06T12:09:40.279Z,17.66
2018-04-06T12:10:40.317Z,16.31
2018-04-06T12:11:40.598Z,17.3
2018-04-06T12:12:40.648Z,16.42
2018-04-06T12:13:40.668Z,15.26
2018-04-06T12:14:40.698Z,15.66
2018-04-06T12:15:40.737Z,14.98
2018-04-06T12:16:40.746Z,15.37
2018-04-06T12:17:40.794Z,15.75
2018-04-06T12:18:40.877Z,15.47
2018-04-06T12:19:40.603Z,14.81
2018-04-06T12:20:40.638Z,13.73
2018-04-06T12:21:40.933Z,13.74
2018-04-06T12:22:40.705Z,13.65
2018-04-06T12:23:40.993Z,13.64
2018-04-06T12:24:41.024Z,13.93
2018-04-06T12:25:41.084Z,13.64
2018-04-06T12:26:41.096Z,13.74
2018-04-06T12:27:40.874Z,13.93
2018-04-06T12:28:41.149Z,14.52
2018-04-06T12:29:41.187Z,13.54
2018-04-06T12:30:40.969Z,13.64
2018-04-06T12:31:41.264Z,13.92
2018-04-06T12:32:41.286Z,13.82
2018-04-06T12:33:41.374Z,13.63
2018-04-06T12:34:41.104Z,13.44
2018-04-06T12:35:41.136Z,13.34
2018-04-06T12:36:41.422Z,13.35
2018-04-06T12:37:41.453Z,13.46
2018-04-06T12:38:41.238Z,13.46
2018-04-06T12:39:41.273Z,13.16
2018-04-06T12:40:41.561Z,13.34
2018-04-06T12:41:41.594Z,13.54
2018-04-06T12:42:41.626Z,14.51
2018-04-06T12:43:41.657Z,13.84
2018-04-06T12:44:41.690Z,13.35
2018-04-06T12:45:41.480Z,13.74
2018-04-06T12:46:41.764Z,12.97
2018-04-06T12:47:41.796Z,13.36
2018-04-06T12:48:41.874Z,12.87
2018-04-06T12:49:41.620Z,13.64
2018-04-06T12:50:41.905Z,13.45
2018-04-06T12:51:41.954Z,13.06
2018-04-06T12:52:41.974Z,12.49
2018-04-06T12:53:42.017Z,11.33
2018-04-06T12:54:42.041Z,11.72
2018-04-06T12:55:41.819Z,11.82
2018-04-06T12:56:42.137Z,11.23